Boone County Airport Harrison US
ICAO: KHRO
IATA: HRO
Category: Medium
Scheduled Services: Yes

Elevation: 1365 ft
TransAlt. 18000 ft.

Airport Communications:
ASOS:121.125
MEMPHIS CNTR:126.85
JONESBORO RDO:122.45
CTAF/UNICOM:123

KHRO Zoom In..

If you have problems with the map follow the link
https://www.worldairports.se/pages/airport.php?
ICAO=KHRO

Runways:

(A) RW 18 length 6161 ft width 150 ft
---- / hdg 182

(B) RW 36 length 6161 ft width 150 ft
ILS 111.70 / hdg 2

Location; KHRO
Day. 13 / Time. 13.53 Zulu
* Altimeter: 29.95
* Temperature: 03° c. 37.4°f.
* Wind from: 130° Speed 04 kn.
Dewpoint: -03° c.
Visibility: 10 Statute Miles.
Clouds: Overcast 4700 ft.

KHRO 131353Z AUTO 13004KT 10SM OVC047 03/M03 A2995 RMK AO2 SLP147 T00331028


Wind From 130°
Speed 04 kn.

 
 
jpsmedia worldairports.se 2019   terms of use